Terminal Aerodrome Forecast
Issued by NWS

Home | Current Version | Previous Version | Text Only | Print | Product List | Glossary On
Versions: 1 2 3 4 5 6 7 8 9 10 11 12 13 14 15 16 17 18 19 20 21 22 23 24 25
874
FTUS43 KDLH 170531
TAFBRD
TAF
KBRD 170531Z 1706/1806 20012KT P6SM OVC150 WS020/25040KT
     FM170800 20008KT P6SM VCSH OVC050
     FM171200 24005KT P6SM BKN150
     FM171800 29012KT P6SM BKN150
     FM180100 28008KT P6SM SKC=

USA.gov is the U.S. government's official web portal to all federal, state and local government web resources and services.